createdAt,value
2018-07-12T00:00:51.278Z,15.30
2018-07-12T00:03:18.674Z,15.20
2018-07-12T00:05:46.361Z,15.20
2018-07-12T00:08:13.899Z,15.20
2018-07-12T00:10:41.212Z,15.10
2018-07-12T00:13:08.607Z,15.10
2018-07-12T00:15:35.893Z,15.10
2018-07-12T00:18:03.325Z,15.10
2018-07-12T00:20:30.670Z,15.10
2018-07-12T00:22:58.008Z,15.00
2018-07-12T00:25:25.488Z,15.00
2018-07-12T00:27:52.826Z,15.00
2018-07-12T00:30:20.666Z,14.90
2018-07-12T00:32:47.956Z,14.90
2018-07-12T00:35:15.620Z,15.00
2018-07-12T00:37:42.933Z,15.00
2018-07-12T00:40:10.226Z,14.90
2018-07-12T00:42:37.546Z,15.00
2018-07-12T00:45:06.369Z,14.90
2018-07-12T00:47:33.733Z,14.90
2018-07-12T00:50:00.933Z,15.00
2018-07-12T00:52:28.235Z,15.00
2018-07-12T00:54:55.643Z,15.00
2018-07-12T00:57:23.008Z,14.90
2018-07-12T00:59:50.298Z,14.80
2018-07-12T01:02:17.630Z,14.80
2018-07-12T01:04:45.627Z,14.80
2018-07-12T01:07:13.195Z,14.80
2018-07-12T01:09:40.749Z,14.80
2018-07-12T01:12:14.241Z,14.80
2018-07-12T01:14:41.546Z,14.70
2018-07-12T01:17:08.931Z,14.60
2018-07-12T01:19:36.394Z,14.50
2018-07-12T01:22:04.012Z,14.40
2018-07-12T01:24:31.446Z,14.40
2018-07-12T01:26:58.790Z,14.30
2018-07-12T01:29:26.143Z,14.30
2018-07-12T01:31:53.500Z,14.40
2018-07-12T01:34:20.876Z,14.30
2018-07-12T01:36:48.266Z,14.20
2018-07-12T01:39:15.589Z,14.10
2018-07-12T01:41:42.953Z,14.10
2018-07-12T01:44:10.329Z,14.00
2018-07-12T01:46:37.692Z,14.10
2018-07-12T01:49:05.729Z,14.10
2018-07-12T01:51:33.280Z,14.00
2018-07-12T01:54:00.983Z,14.00
2018-07-12T01:56:28.603Z,14.10
2018-07-12T01:58:55.870Z,14.10
2018-07-12T02:01:23.201Z,14.10
2018-07-12T02:03:50.815Z,14.10
2018-07-12T02:06:18.383Z,14.20
2018-07-12T02:08:45.720Z,14.30
2018-07-12T02:13:39.001Z,14.40
2018-07-12T02:18:39.161Z,14.30
2018-07-12T02:21:06.971Z,14.30
2018-07-12T02:23:34.330Z,14.30
2018-07-12T02:26:01.691Z,14.30
2018-07-12T02:28:28.992Z,14.20
2018-07-12T02:30:56.496Z,14.20
2018-07-12T02:33:24.144Z,14.30
2018-07-12T02:35:51.473Z,14.30
2018-07-12T02:38:18.759Z,14.30
2018-07-12T02:40:46.077Z,14.20
2018-07-12T02:43:13.416Z,14.20
2018-07-12T02:45:40.708Z,14.10
2018-07-12T02:48:08.331Z,14.10
2018-07-12T02:50:35.701Z,14.10
2018-07-12T02:53:02.950Z,14.10
2018-07-12T02:55:30.323Z,14.10
2018-07-12T02:57:58.399Z,14.10
2018-07-12T03:00:25.738Z,14.20
2018-07-12T03:02:53.069Z,14.20
2018-07-12T03:05:20.555Z,14.20
2018-07-12T03:07:47.881Z,14.20
2018-07-12T03:10:15.179Z,14.20
2018-07-12T03:12:42.583Z,14.20
2018-07-12T03:15:14.875Z,14.20
2018-07-12T03:17:42.171Z,14.20
2018-07-12T03:20:10.600Z,14.10
2018-07-12T03:22:38.108Z,14.10
2018-07-12T03:25:05.535Z,14.10
2018-07-12T03:27:32.845Z,14.10
2018-07-12T03:30:00.425Z,14.20
2018-07-12T03:32:27.787Z,14.20
2018-07-12T03:34:55.229Z,14.20
2018-07-12T03:37:22.585Z,14.20
2018-07-12T03:39:50.152Z,14.20
2018-07-12T03:42:17.561Z,14.10
2018-07-12T03:44:45.156Z,14.10
2018-07-12T03:47:12.508Z,14.00
2018-07-12T03:49:39.985Z,14.10
2018-07-12T03:52:07.287Z,14.10
2018-07-12T03:54:34.562Z,14.10
2018-07-12T03:57:02.238Z,14.10
2018-07-12T03:59:29.636Z,14.20
2018-07-12T04:01:56.999Z,14.30
2018-07-12T04:04:24.519Z,14.30
2018-07-12T04:06:51.871Z,14.50
2018-07-12T04:09:19.233Z,14.70
2018-07-12T04:11:46.685Z,14.90
2018-07-12T04:14:14.109Z,15.00
2018-07-12T04:16:41.387Z,15.20
2018-07-12T04:19:08.677Z,15.40
2018-07-12T04:21:36.812Z,15.70
2018-07-12T04:24:04.268Z,15.80
2018-07-12T04:26:31.573Z,15.80
2018-07-12T04:28:58.877Z,15.80
2018-07-12T04:31:26.456Z,16.00
2018-07-12T04:33:54.054Z,16.30
2018-07-12T04:36:21.551Z,16.20
2018-07-12T04:38:48.928Z,16.40
2018-07-12T04:41:16.307Z,16.60
2018-07-12T04:43:43.623Z,16.70
2018-07-12T04:46:12.073Z,16.90
2018-07-12T04:48:39.361Z,17.20
2018-07-12T04:51:06.804Z,17.50
2018-07-12T04:53:34.269Z,18.00
2018-07-12T04:56:01.620Z,18.40
2018-07-12T04:58:29.007Z,18.80
2018-07-12T05:00:56.595Z,19.20
2018-07-12T05:03:24.056Z,19.40
2018-07-12T05:05:51.452Z,19.60
2018-07-12T05:08:18.772Z,19.80
2018-07-12T05:10:46.099Z,19.60
2018-07-12T05:13:13.870Z,19.50
2018-07-12T05:15:41.195Z,19.30
2018-07-12T05:18:08.586Z,19.40
2018-07-12T05:20:35.984Z,19.60
2018-07-12T05:23:03.373Z,19.60
2018-07-12T05:25:30.680Z,19.40
2018-07-12T05:27:57.915Z,19.40
2018-07-12T05:30:25.268Z,19.60
2018-07-12T05:32:52.872Z,19.90
2018-07-12T05:35:20.149Z,20.60
2018-07-12T05:37:48.638Z,20.90
2018-07-12T05:40:24.436Z,20.70
2018-07-12T05:42:53.547Z,20.70
2018-07-12T05:45:22.023Z,21.00
2018-07-12T05:47:50.680Z,21.50
2018-07-12T05:50:19.329Z,21.50
2018-07-12T05:52:47.772Z,21.30
2018-07-12T05:55:16.492Z,21.60
2018-07-12T05:57:45.511Z,22.00
2018-07-12T06:00:14.037Z,21.90
2018-07-12T06:02:42.700Z,21.90
2018-07-12T06:05:11.064Z,22.10
2018-07-12T06:07:39.486Z,22.00
2018-07-12T06:10:08.028Z,22.20
2018-07-12T06:12:36.998Z,22.40
2018-07-12T06:15:05.862Z,23.00
2018-07-12T06:17:34.290Z,22.90
2018-07-12T06:20:02.828Z,22.70
2018-07-12T06:22:31.324Z,22.70
2018-07-12T06:25:01.634Z,23.00
2018-07-12T06:27:30.197Z,22.80
2018-07-12T06:29:58.719Z,21.80
2018-07-12T06:32:27.333Z,20.80
2018-07-12T06:34:56.012Z,20.50
2018-07-12T06:39:53.306Z,21.70
2018-07-12T06:42:22.230Z,21.30
2018-07-12T06:44:50.589Z,20.60
2018-07-12T06:47:19.910Z,20.50
2018-07-12T06:49:48.294Z,20.60
2018-07-12T06:52:16.834Z,20.60
2018-07-12T06:57:13.389Z,20.10
2018-07-12T06:59:41.752Z,20.00
2018-07-12T07:02:10.193Z,19.80
2018-07-12T07:04:38.575Z,19.80
2018-07-12T07:07:07.294Z,19.80
2018-07-12T07:09:35.786Z,19.80
2018-07-12T07:12:04.107Z,20.40
2018-07-12T07:14:32.533Z,21.20
2018-07-12T07:17:01.771Z,22.10
2018-07-12T07:19:30.212Z,22.40
2018-07-12T07:21:58.663Z,22.80
2018-07-12T07:24:27.375Z,22.90
2018-07-12T07:26:56.490Z,22.10
2018-07-12T07:29:26.516Z,21.70
2018-07-12T07:31:56.166Z,21.30
2018-07-12T07:34:27.387Z,21.20
2018-07-12T07:36:57.102Z,21.20
2018-07-12T07:39:26.236Z,21.60
2018-07-12T07:41:58.590Z,21.90
2018-07-12T07:44:28.607Z,21.80
2018-07-12T07:46:58.767Z,21.70
2018-07-12T07:49:28.148Z,21.90
2018-07-12T07:51:58.348Z,22.90
2018-07-12T07:54:28.039Z,23.70
2018-07-12T07:56:57.334Z,24.00
2018-07-12T07:59:25.793Z,24.50
2018-07-12T08:01:56.002Z,24.90
2018-07-12T08:04:24.659Z,25.60
2018-07-12T08:06:53.312Z,25.90
2018-07-12T08:09:23.108Z,24.80
2018-07-12T08:11:51.938Z,23.90
2018-07-12T08:14:21.106Z,23.60
2018-07-12T08:16:50.636Z,24.60
2018-07-12T08:19:20.872Z,26.00
2018-07-12T08:21:50.254Z,27.20
2018-07-12T08:24:19.540Z,27.80
2018-07-12T08:26:48.028Z,27.20
2018-07-12T08:29:17.570Z,27.10
2018-07-12T08:31:47.228Z,26.90
2018-07-12T08:34:16.623Z,26.90
2018-07-12T08:36:46.759Z,26.70
2018-07-12T08:39:15.112Z,25.90
2018-07-12T08:41:44.296Z,24.80
2018-07-12T08:44:12.904Z,24.30
2018-07-12T08:46:41.501Z,23.90
2018-07-12T08:49:10.536Z,24.60
2018-07-12T08:51:39.047Z,25.60
2018-07-12T08:54:07.796Z,26.10
2018-07-12T08:56:36.447Z,25.40
2018-07-12T08:59:05.005Z,25.70
2018-07-12T09:01:33.741Z,25.90
2018-07-12T09:04:02.356Z,26.20
2018-07-12T09:06:30.908Z,26.50
2018-07-12T09:08:59.605Z,26.10
2018-07-12T09:11:28.372Z,25.90
2018-07-12T09:13:58.402Z,25.70
2018-07-12T09:16:26.774Z,25.50
2018-07-12T09:18:55.172Z,25.80
2018-07-12T09:21:24.049Z,26.40
2018-07-12T09:23:54.249Z,26.70
2018-07-12T09:26:22.714Z,26.90
2018-07-12T09:28:52.727Z,27.40
2018-07-12T09:31:21.680Z,27.00
2018-07-12T09:33:50.732Z,26.90
2018-07-12T09:36:19.163Z,26.30
2018-07-12T09:38:50.181Z,26.00
2018-07-12T09:41:19.141Z,26.50
2018-07-12T09:43:48.077Z,26.50
2018-07-12T09:46:16.981Z,26.20
2018-07-12T09:48:47.473Z,26.10
2018-07-12T09:51:16.452Z,26.80
2018-07-12T09:53:45.807Z,27.50
2018-07-12T09:56:14.302Z,27.50
2018-07-12T09:58:43.924Z,28.30
2018-07-12T10:01:16.710Z,29.10
2018-07-12T10:03:49.477Z,29.70
2018-07-12T10:06:22.906Z,29.80
2018-07-12T10:08:55.765Z,29.80
2018-07-12T10:11:29.220Z,28.80
2018-07-12T10:14:02.006Z,28.30
2018-07-12T10:16:34.790Z,28.20
2018-07-12T10:19:04.090Z,27.90
2018-07-12T10:21:33.811Z,27.40
2018-07-12T10:24:02.672Z,27.20
2018-07-12T10:26:32.355Z,27.60
2018-07-12T10:29:00.850Z,27.40
2018-07-12T10:31:32.062Z,26.80
2018-07-12T10:34:00.682Z,26.80
2018-07-12T10:39:00.186Z,28.90
2018-07-12T10:41:28.780Z,29.90
2018-07-12T10:43:57.881Z,30.60
2018-07-12T10:46:28.375Z,30.80
2018-07-12T10:48:58.298Z,29.60
2018-07-12T10:51:27.109Z,28.80
2018-07-12T10:56:27.481Z,28.40
2018-07-12T10:58:57.389Z,28.10
2018-07-12T11:01:26.643Z,28.30
2018-07-12T11:03:55.697Z,28.90
2018-07-12T11:06:24.548Z,28.80
2018-07-12T11:08:55.782Z,28.40
2018-07-12T11:11:25.531Z,27.40
2018-07-12T11:13:55.279Z,27.10
2018-07-12T11:16:25.144Z,26.30
2018-07-12T11:18:55.338Z,26.00
2018-07-12T11:21:24.454Z,25.80
2018-07-12T11:23:54.389Z,26.50
2018-07-12T11:26:23.064Z,26.80
2018-07-12T11:28:53.124Z,26.60
2018-07-12T11:31:23.830Z,27.00
2018-07-12T11:33:53.862Z,27.10
2018-07-12T11:36:23.022Z,28.10
2018-07-12T11:38:54.064Z,28.70
2018-07-12T11:41:23.107Z,28.70
2018-07-12T11:43:53.176Z,29.00
2018-07-12T11:46:21.818Z,29.00
2018-07-12T11:48:50.439Z,29.00
2018-07-12T11:51:19.451Z,28.20
2018-07-12T11:53:48.423Z,27.30
2018-07-12T11:56:17.232Z,26.60
2018-07-12T11:58:46.279Z,26.00
2018-07-12T12:01:16.120Z,25.60
2018-07-12T12:03:45.584Z,25.50
2018-07-12T12:06:16.053Z,25.50
2018-07-12T12:08:45.758Z,25.50
2018-07-12T12:11:14.884Z,25.60
2018-07-12T12:13:46.372Z,26.80
2018-07-12T12:16:17.335Z,27.80
2018-07-12T12:18:46.622Z,28.90
2018-07-12T12:21:16.912Z,29.70
2018-07-12T12:23:46.721Z,30.20
2018-07-12T12:26:16.076Z,30.00
2018-07-12T12:28:44.930Z,29.50
2018-07-12T12:31:16.396Z,28.70
2018-07-12T12:33:45.740Z,28.50
2018-07-12T12:36:15.278Z,29.00
2018-07-12T12:38:46.682Z,29.70
2018-07-12T12:41:19.748Z,29.80
2018-07-12T12:43:50.018Z,29.20
2018-07-12T12:46:19.925Z,28.30
2018-07-12T12:48:48.709Z,27.70
2018-07-12T12:51:17.395Z,27.40
2018-07-12T12:53:46.967Z,26.90
2018-07-12T12:56:16.067Z,26.80
2018-07-12T12:58:46.505Z,26.60
2018-07-12T13:01:19.474Z,26.50
2018-07-12T13:03:50.998Z,26.60
2018-07-12T13:06:20.676Z,27.10
2018-07-12T13:08:49.719Z,28.70
2018-07-12T13:11:18.954Z,30.10
2018-07-12T13:13:49.898Z,29.80
2018-07-12T13:16:32.897Z,29.80
2018-07-12T13:19:02.027Z,29.50
2018-07-12T13:21:30.613Z,28.70
2018-07-12T13:24:01.893Z,27.70
2018-07-12T13:26:31.957Z,27.00
2018-07-12T13:29:01.066Z,26.50
2018-07-12T13:31:30.168Z,26.40
2018-07-12T13:33:59.387Z,26.20
2018-07-12T13:36:29.485Z,25.80
2018-07-12T13:38:59.244Z,24.40
2018-07-12T13:44:05.761Z,22.70
2018-07-12T13:46:36.819Z,22.00
2018-07-12T13:49:06.113Z,21.70
2018-07-12T13:51:36.139Z,21.70
2018-07-12T13:54:05.565Z,22.00
2018-07-12T13:56:34.768Z,22.30
2018-07-12T13:59:04.624Z,22.60
2018-07-12T14:01:34.840Z,22.70
2018-07-12T14:04:05.204Z,22.80
2018-07-12T14:06:34.141Z,22.80
2018-07-12T14:09:03.734Z,22.70
2018-07-12T14:11:32.913Z,22.70
2018-07-12T14:14:02.140Z,22.70
2018-07-12T14:16:31.456Z,22.60
2018-07-12T14:19:01.220Z,22.60
2018-07-12T14:21:30.396Z,22.50
2018-07-12T14:23:59.877Z,22.60
2018-07-12T14:26:28.508Z,22.80
2018-07-12T14:28:57.868Z,22.90
2018-07-12T14:31:27.727Z,23.00
2018-07-12T14:33:57.854Z,23.00
2018-07-12T14:36:28.071Z,23.00
2018-07-12T14:38:57.360Z,22.90
2018-07-12T14:41:26.562Z,22.60
2018-07-12T14:43:55.221Z,22.40
2018-07-12T14:46:25.820Z,22.40
2018-07-12T14:48:55.116Z,22.50
2018-07-12T14:51:24.430Z,22.50
2018-07-12T14:53:54.088Z,22.60
2018-07-12T14:56:22.722Z,22.80
2018-07-12T14:58:51.433Z,23.00
2018-07-12T15:01:20.011Z,23.00
2018-07-12T15:03:48.468Z,23.00
2018-07-12T15:06:16.940Z,22.90
2018-07-12T15:08:45.685Z,22.80
2018-07-12T15:11:14.278Z,22.60
2018-07-12T15:13:42.879Z,22.60
2018-07-12T15:16:11.455Z,22.40
2018-07-12T15:18:40.192Z,22.20
2018-07-12T15:21:08.698Z,22.10
2018-07-12T15:23:37.828Z,22.10
2018-07-12T15:26:07.118Z,22.10
2018-07-12T15:28:35.774Z,22.00
2018-07-12T15:31:04.835Z,22.00
2018-07-12T15:33:34.933Z,22.00
2018-07-12T15:36:06.580Z,21.90
2018-07-12T15:38:35.187Z,21.90
2018-07-12T15:41:03.844Z,21.80
2018-07-12T15:43:32.471Z,21.90
2018-07-12T15:46:01.274Z,21.90
2018-07-12T15:48:29.656Z,21.90
2018-07-12T15:50:58.236Z,22.00
2018-07-12T15:53:26.813Z,22.10
2018-07-12T15:58:24.589Z,22.00
2018-07-12T16:00:53.781Z,22.00
2018-07-12T16:03:22.749Z,22.10
2018-07-12T16:05:52.112Z,22.10
2018-07-12T16:08:22.334Z,22.00
2018-07-12T16:10:53.923Z,21.90
2018-07-12T16:13:26.318Z,21.80
2018-07-12T16:15:56.337Z,21.80
2018-07-12T16:18:24.953Z,21.70
2018-07-12T16:20:58.524Z,21.70
2018-07-12T16:23:29.677Z,21.70
2018-07-12T16:25:59.143Z,21.70
2018-07-12T16:28:29.829Z,21.70
2018-07-12T16:31:00.710Z,21.50
2018-07-12T16:33:29.870Z,21.50
2018-07-12T16:35:59.928Z,21.30
2018-07-12T16:38:31.437Z,20.90
2018-07-12T16:43:33.518Z,20.80
2018-07-12T16:46:02.175Z,20.70
2018-07-12T16:48:30.742Z,20.50
2018-07-12T16:50:59.263Z,20.30
2018-07-12T16:53:27.819Z,20.20
2018-07-12T16:55:56.732Z,19.90
2018-07-12T16:58:25.129Z,19.70
2018-07-12T17:00:53.654Z,19.50
2018-07-12T17:03:22.166Z,19.40
2018-07-12T17:05:50.741Z,19.40
2018-07-12T17:08:19.763Z,19.20
2018-07-12T17:10:48.336Z,19.00
2018-07-12T17:13:24.519Z,18.90
2018-07-12T17:15:53.297Z,18.80
2018-07-12T17:18:21.736Z,18.80
2018-07-12T17:20:50.973Z,18.80
2018-07-12T17:23:21.049Z,18.70
2018-07-12T17:25:50.783Z,18.70
2018-07-12T17:28:19.410Z,18.70
2018-07-12T17:30:52.840Z,18.70
2018-07-12T17:33:23.493Z,18.70
2018-07-12T17:35:59.843Z,18.70
2018-07-12T17:38:31.561Z,18.80
2018-07-12T17:41:01.600Z,19.00
2018-07-12T17:43:32.058Z,19.20
2018-07-12T17:46:02.354Z,19.30
2018-07-12T17:48:35.826Z,19.40
2018-07-12T17:51:10.371Z,19.40
2018-07-12T17:53:45.769Z,19.40
2018-07-12T17:56:15.412Z,19.50
2018-07-12T17:58:44.432Z,19.60
2018-07-12T18:01:14.108Z,19.60
2018-07-12T18:03:42.532Z,19.60
2018-07-12T18:06:12.129Z,19.60
2018-07-12T18:08:40.665Z,19.60
2018-07-12T18:11:09.656Z,19.60
2018-07-12T18:13:38.144Z,19.60
2018-07-12T18:16:07.723Z,19.60
2018-07-12T18:18:36.130Z,19.70
2018-07-12T18:21:04.764Z,19.80
2018-07-12T18:23:33.397Z,19.80
2018-07-12T18:26:03.314Z,19.70
2018-07-12T18:28:31.795Z,19.70
2018-07-12T18:31:01.191Z,19.60
2018-07-12T18:33:29.971Z,19.50
2018-07-12T18:35:58.515Z,19.40
2018-07-12T18:38:27.191Z,19.30
2018-07-12T18:40:55.779Z,19.20
2018-07-12T18:43:24.358Z,19.10
2018-07-12T18:45:53.595Z,19.10
2018-07-12T18:48:22.151Z,19.00
2018-07-12T18:50:50.676Z,18.90
2018-07-12T18:53:19.207Z,18.90
2018-07-12T18:55:47.730Z,18.80
2018-07-12T18:58:17.552Z,18.70
2018-07-12T19:00:46.388Z,18.70
2018-07-12T19:03:14.866Z,18.60
2018-07-12T19:05:43.456Z,18.60
2018-07-12T19:08:12.142Z,18.50
2018-07-12T19:10:40.714Z,18.40
2018-07-12T19:13:09.445Z,18.30
2018-07-12T19:15:37.791Z,18.30
2018-07-12T19:18:06.391Z,18.20
2018-07-12T19:20:34.849Z,18.20
2018-07-12T19:23:03.852Z,18.10
2018-07-12T19:25:33.024Z,18.00
2018-07-12T19:28:02.356Z,17.90
2018-07-12T19:30:32.831Z,17.90
2018-07-12T19:33:01.809Z,17.80
2018-07-12T19:35:30.944Z,17.80
2018-07-12T19:38:00.098Z,17.80
2018-07-12T19:40:31.213Z,17.80
2018-07-12T19:43:00.099Z,17.90
2018-07-12T19:45:29.167Z,17.90
2018-07-12T19:47:57.682Z,17.90
2018-07-12T19:50:26.198Z,17.80
2018-07-12T19:52:54.732Z,17.80
2018-07-12T19:55:23.816Z,17.70
2018-07-12T19:57:52.588Z,17.60
2018-07-12T20:00:21.028Z,17.60
2018-07-12T20:02:49.373Z,17.60
2018-07-12T20:05:24.385Z,17.50
2018-07-12T20:07:53.364Z,17.50
2018-07-12T20:10:22.579Z,17.40
2018-07-12T20:12:51.784Z,17.30
2018-07-12T20:15:20.281Z,17.20
2018-07-12T20:17:48.941Z,17.20
2018-07-12T20:20:17.563Z,17.10
2018-07-12T20:22:46.025Z,17.00
2018-07-12T20:25:14.629Z,17.00
2018-07-12T20:27:43.054Z,17.00
2018-07-12T20:30:11.891Z,17.00
2018-07-12T20:32:44.268Z,16.90
2018-07-12T20:35:16.041Z,16.90
2018-07-12T20:37:44.696Z,16.90
2018-07-12T20:40:13.513Z,17.00
2018-07-12T20:42:41.945Z,17.00
2018-07-12T20:45:11.854Z,17.00
2018-07-12T20:47:40.435Z,17.00
2018-07-12T20:50:10.100Z,17.00
2018-07-12T20:52:38.721Z,17.00
2018-07-12T20:55:07.337Z,17.00
2018-07-12T20:57:36.080Z,16.90
2018-07-12T21:00:04.517Z,16.90
2018-07-12T21:02:32.999Z,16.80
2018-07-12T21:05:01.685Z,16.70
2018-07-12T21:07:30.362Z,16.60
2018-07-12T21:09:58.814Z,16.60
2018-07-12T21:12:27.851Z,16.60
2018-07-12T21:14:56.680Z,16.60
2018-07-12T21:17:25.274Z,16.60
2018-07-12T21:19:54.153Z,16.50
2018-07-12T21:22:23.257Z,16.40
2018-07-12T21:24:51.689Z,16.50
2018-07-12T21:27:20.420Z,16.50
2018-07-12T21:29:48.964Z,16.50
2018-07-12T21:32:18.168Z,16.40
2018-07-12T21:34:47.236Z,16.40
2018-07-12T21:37:16.099Z,16.50
2018-07-12T21:39:44.531Z,16.50
2018-07-12T21:42:13.007Z,16.40
2018-07-12T21:44:41.473Z,16.40
2018-07-12T21:47:09.924Z,16.30
2018-07-12T21:49:38.452Z,16.20
2018-07-12T21:52:07.880Z,16.20
2018-07-12T21:54:36.994Z,16.30
2018-07-12T21:57:05.561Z,16.40
2018-07-12T21:59:34.591Z,16.40
2018-07-12T22:02:03.132Z,16.40
2018-07-12T22:04:31.625Z,16.30
2018-07-12T22:07:08.976Z,16.20
2018-07-12T22:09:37.893Z,16.20
2018-07-12T22:14:34.814Z,16.40
2018-07-12T22:17:04.474Z,16.40
2018-07-12T22:19:32.944Z,16.30
2018-07-12T22:22:01.328Z,16.30
2018-07-12T22:24:30.078Z,16.20
2018-07-12T22:26:58.697Z,16.20
2018-07-12T22:29:27.719Z,16.20
2018-07-12T22:31:56.965Z,16.20
2018-07-12T22:34:25.632Z,16.20
2018-07-12T22:36:54.189Z,16.10
2018-07-12T22:39:22.629Z,16.00
2018-07-12T22:41:51.120Z,16.00
2018-07-12T22:44:19.674Z,15.90
2018-07-12T22:46:48.224Z,15.90
2018-07-12T22:49:17.953Z,15.80
2018-07-12T22:51:46.438Z,15.70
2018-07-12T22:54:14.867Z,15.70
2018-07-12T22:56:43.350Z,15.70
2018-07-12T22:59:12.848Z,15.60
2018-07-12T23:01:41.368Z,15.60
2018-07-12T23:04:09.819Z,15.60
2018-07-12T23:06:38.392Z,15.60
2018-07-12T23:09:06.922Z,15.50
2018-07-12T23:11:35.478Z,15.60
2018-07-12T23:14:03.817Z,15.60
2018-07-12T23:16:32.469Z,15.60
2018-07-12T23:19:01.187Z,15.60
2018-07-12T23:21:29.554Z,15.60
2018-07-12T23:23:58.045Z,15.60
2018-07-12T23:26:26.451Z,15.60
2018-07-12T23:28:54.825Z,15.50
2018-07-12T23:31:23.611Z,15.50
2018-07-12T23:33:52.333Z,15.40
2018-07-12T23:36:20.878Z,15.40
2018-07-12T23:38:49.249Z,15.50
2018-07-12T23:41:17.803Z,15.60
2018-07-12T23:43:46.211Z,15.60
2018-07-12T23:46:14.699Z,15.50
2018-07-12T23:48:43.396Z,15.50
2018-07-12T23:51:11.857Z,15.40
2018-07-12T23:53:40.257Z,15.40
2018-07-12T23:56:08.719Z,15.30
2018-07-12T23:58:37.492Z,15.40
